Time,TemperatureF,DewpointF,PressureIn,WindDirection,WindDirectionDegrees,WindSpeedMPH,WindSpeedGustMPH,Humidity,HourlyPrecipIn,Conditions,Clouds,dailyrainin,SoftwareType,DateUTC
2013-02-25 00:00:00,23.0,21.5,30.09,North,0,0.0,0.0,94,0.00,,,0.00,WUHU216DAVISVP2,2013-02-25 05:00:00,
2013-02-25 00:04:00,23.0,21.5,30.09,ESE,113,0.0,0.0,94,0.00,,,0.00,WUHU216DAVISVP2,2013-02-25 05:04:00,
2013-02-25 00:09:00,22.9,21.4,30.09,ESE,113,0.0,0.0,94,0.00,,,0.00,WUHU216DAVISVP2,2013-02-25 05:09:00,
2013-02-25 00:15:00,22.7,21.2,30.09,ESE,113,0.0,0.0,94,0.00,,,0.00,WUHU216DAVISVP2,2013-02-25 05:15:00,
2013-02-25 00:20:00,22.7,21.2,30.09,ESE,113,0.0,0.0,94,0.00,,,0.00,WUHU216DAVISVP2,2013-02-25 05:20:00,
2013-02-25 00:25:00,22.6,21.1,30.09,ESE,113,0.0,0.0,94,0.00,,,0.00,WUHU216DAVISVP2,2013-02-25 05:25:00,
2013-02-25 00:30:00,22.4,20.9,30.09,ESE,113,0.0,0.0,94,0.00,,,0.00,WUHU216DAVISVP2,2013-02-25 05:30:00,
2013-02-25 00:35:00,22.3,21.0,30.09,ESE,113,0.0,0.0,95,0.00,,,0.00,WUHU216DAVISVP2,2013-02-25 05:35:00,
2013-02-25 00:40:00,22.0,20.5,30.09,ESE,113,0.0,0.0,94,0.00,,,0.00,WUHU216DAVISVP2,2013-02-25 05:40:00,
2013-02-25 00:45:00,21.6,20.1,30.10,ESE,113,0.0,0.0,94,0.00,,,0.00,WUHU216DAVISVP2,2013-02-25 05:45:00,
2013-02-25 00:50:00,21.2,19.7,30.09,ESE,113,0.0,0.0,94,0.00,,,0.00,WUHU216DAVISVP2,2013-02-25 05:50:00,
2013-02-25 00:55:00,21.0,19.5,30.10,ESE,113,0.0,0.0,94,0.00,,,0.00,WUHU216DAVISVP2,2013-02-25 05:55:00,
2013-02-25 01:00:00,21.5,20.2,30.10,ESE,113,0.0,0.0,95,0.00,,,0.00,WUHU216DAVISVP2,2013-02-25 06:00:00,
2013-02-25 01:05:00,21.5,20.3,30.10,NE,51,3.0,3.0,95,0.00,,,0.00,WUHU216DAVISVP2,2013-02-25 06:05:00,
2013-02-25 01:10:00,21.6,20.4,30.10,NE,51,1.0,3.0,95,0.00,,,0.00,WUHU216DAVISVP2,2013-02-25 06:10:00,
2013-02-25 01:16:00,21.7,20.4,30.10,NE,51,1.0,3.0,95,0.00,,,0.00,WUHU216DAVISVP2,2013-02-25 06:16:00,
2013-02-25 01:21:00,21.7,20.4,30.10,NE,51,0.0,3.0,95,0.00,,,0.00,WUHU216DAVISVP2,2013-02-25 06:21:00,
2013-02-25 01:26:00,21.7,20.5,30.10,NE,51,0.0,2.0,95,0.00,,,0.00,WUHU216DAVISVP2,2013-02-25 06:26:00,
2013-02-25 01:30:00,21.6,20.4,30.10,NE,45,1.0,3.0,95,0.00,,,0.00,WUHU216DAVISVP2,2013-02-25 06:30:00,
2013-02-25 01:31:00,21.6,20.4,30.10,NE,51,0.0,1.0,95,0.00,,,0.00,WUHU216DAVISVP2,2013-02-25 06:31:00,
2013-02-25 01:36:00,21.5,20.3,30.10,NE,51,0.0,1.0,95,0.00,,,0.00,WUHU216DAVISVP2,2013-02-25 06:36:00,
2013-02-25 01:41:00,21.5,20.3,30.11,NE,51,0.0,0.0,95,0.00,,,0.00,WUHU216DAVISVP2,2013-02-25 06:41:00,
2013-02-25 01:46:00,21.6,20.6,30.11,NE,51,1.0,1.0,96,0.00,,,0.00,WUHU216DAVISVP2,2013-02-25 06:46:00,
2013-02-25 01:51:00,21.5,20.2,30.11,NE,51,0.0,1.0,95,0.00,,,0.00,WUHU216DAVISVP2,2013-02-25 06:51:00,
2013-02-25 01:56:00,21.3,20.0,30.11,NE,51,0.0,1.0,95,0.00,,,0.00,WUHU216DAVISVP2,2013-02-25 06:56:00,
2013-02-25 02:00:00,21.3,20.3,30.11,NE,45,0.0,1.0,96,0.00,,,0.00,WUHU216DAVISVP2,2013-02-25 07:00:00,
2013-02-25 02:01:00,21.3,20.3,30.11,NE,51,0.0,1.0,96,0.00,,,0.00,WUHU216DAVISVP2,2013-02-25 07:01:00,
2013-02-25 02:07:00,21.3,20.3,30.11,NE,51,0.0,1.0,96,0.00,,,0.00,WUHU216DAVISVP2,2013-02-25 07:07:00,
2013-02-25 02:12:00,21.0,19.7,30.11,NE,51,0.0,0.0,95,0.00,,,0.00,WUHU216DAVISVP2,2013-02-25 07:12:00,
2013-02-25 02:17:00,20.6,19.4,30.11,NE,51,0.0,0.0,95,0.00,,,0.00,WUHU216DAVISVP2,2013-02-25 07:17:00,
2013-02-25 02:22:00,20.1,18.9,30.11,NE,51,0.0,0.0,95,0.00,,,0.00,WUHU216DAVISVP2,2013-02-25 07:22:00,
2013-02-25 02:27:00,19.7,18.5,30.11,NE,51,0.0,0.0,95,0.00,,,0.00,WUHU216DAVISVP2,2013-02-25 07:27:00,
2013-02-25 02:30:00,19.6,18.6,30.11,North,0,0.0,0.0,96,0.00,,,0.00,WUHU216DAVISVP2,2013-02-25 07:30:00,
2013-02-25 02:32:00,19.6,18.6,30.11,NE,51,0.0,0.0,96,0.00,,,0.00,WUHU216DAVISVP2,2013-02-25 07:32:00,
2013-02-25 02:37:00,19.6,18.6,30.11,NE,51,0.0,0.0,96,0.00,,,0.00,WUHU216DAVISVP2,2013-02-25 07:37:00,
2013-02-25 02:42:00,19.5,18.5,30.11,NE,51,0.0,0.0,96,0.00,,,0.00,WUHU216DAVISVP2,2013-02-25 07:42:00,
2013-02-25 02:47:00,19.6,18.6,30.11,NE,51,0.0,0.0,96,0.00,,,0.00,WUHU216DAVISVP2,2013-02-25 07:47:00,
2013-02-25 02:52:00,19.6,18.6,30.10,NE,51,0.0,0.0,96,0.00,,,0.00,WUHU216DAVISVP2,2013-02-25 07:52:00,
2013-02-25 02:57:00,19.5,18.5,30.11,NE,51,0.0,0.0,96,0.00,,,0.00,WUHU216DAVISVP2,2013-02-25 07:57:00,
2013-02-25 03:00:00,19.4,18.4,30.10,North,0,0.0,0.0,96,0.00,,,0.00,WUHU216DAVISVP2,2013-02-25 08:00:00,
2013-02-25 03:02:00,19.4,18.4,30.10,NE,51,0.0,0.0,96,0.00,,,0.00,WUHU216DAVISVP2,2013-02-25 08:02:00,
2013-02-25 03:07:00,19.4,18.4,30.10,NE,51,0.0,0.0,96,0.00,,,0.00,WUHU216DAVISVP2,2013-02-25 08:07:00,
2013-02-25 03:12:00,19.5,18.5,30.10,NE,51,0.0,0.0,96,0.00,,,0.00,WUHU216DAVISVP2,2013-02-25 08:12:00,
2013-02-25 03:17:00,19.5,18.5,30.10,NE,51,0.0,0.0,96,0.00,,,0.00,WUHU216DAVISVP2,2013-02-25 08:17:00,
2013-02-25 03:23:00,19.4,18.4,30.10,NE,51,0.0,0.0,96,0.00,,,0.00,WUHU216DAVISVP2,2013-02-25 08:23:00,
2013-02-25 03:28:00,19.4,18.4,30.10,NE,51,0.0,0.0,96,0.00,,,0.00,WUHU216DAVISVP2,2013-02-25 08:28:00,
2013-02-25 03:30:00,19.5,18.5,30.10,North,0,0.0,0.0,96,0.00,,,0.00,WUHU216DAVISVP2,2013-02-25 08:30:00,
2013-02-25 03:33:00,19.5,18.5,30.10,NE,51,0.0,0.0,96,0.00,,,0.00,WUHU216DAVISVP2,2013-02-25 08:33:00,
2013-02-25 03:38:00,19.6,18.6,30.10,NE,51,0.0,0.0,96,0.00,,,0.00,WUHU216DAVISVP2,2013-02-25 08:38:00,
2013-02-25 03:43:00,19.6,18.6,30.10,NE,51,0.0,0.0,96,0.00,,,0.00,WUHU216DAVISVP2,2013-02-25 08:43:00,
2013-02-25 03:48:00,19.6,18.6,30.10,NE,51,0.0,0.0,96,0.00,,,0.00,WUHU216DAVISVP2,2013-02-25 08:48:00,
2013-02-25 03:53:00,19.9,18.9,30.10,NE,51,0.0,0.0,96,0.00,,,0.00,WUHU216DAVISVP2,2013-02-25 08:53:00,
2013-02-25 03:58:00,19.9,18.9,30.09,NE,51,0.0,0.0,96,0.00,,,0.00,WUHU216DAVISVP2,2013-02-25 08:58:00,
2013-02-25 04:00:00,19.9,18.9,30.09,North,0,0.0,0.0,96,0.00,,,0.00,WUHU216DAVISVP2,2013-02-25 09:00:00,
2013-02-25 04:03:00,19.9,18.9,30.09,NE,51,0.0,0.0,96,0.00,,,0.00,WUHU216DAVISVP2,2013-02-25 09:03:00,
2013-02-25 04:08:00,19.7,18.7,30.09,NE,51,0.0,0.0,96,0.00,,,0.00,WUHU216DAVISVP2,2013-02-25 09:08:00,
2013-02-25 04:13:00,19.2,18.0,30.09,West,260,0.0,0.0,95,0.00,,,0.00,WUHU216DAVISVP2,2013-02-25 09:13:00,
2013-02-25 04:18:00,19.1,17.9,30.09,West,260,0.0,0.0,95,0.00,,,0.00,WUHU216DAVISVP2,2013-02-25 09:18:00,
2013-02-25 04:23:00,19.3,18.3,30.09,West,260,0.0,0.0,96,0.00,,,0.00,WUHU216DAVISVP2,2013-02-25 09:23:00,
2013-02-25 04:28:00,19.5,18.5,30.09,West,260,0.0,0.0,96,0.00,,,0.00,WUHU216DAVISVP2,2013-02-25 09:28:00,
2013-02-25 04:30:00,19.5,18.5,30.10,North,0,0.0,0.0,96,0.00,,,0.00,WUHU216DAVISVP2,2013-02-25 09:30:00,
2013-02-25 04:34:00,19.6,18.6,30.10,West,260,0.0,0.0,96,0.00,,,0.00,WUHU216DAVISVP2,2013-02-25 09:34:00,
2013-02-25 04:39:00,19.3,18.1,30.10,West,260,0.0,0.0,95,0.00,,,0.00,WUHU216DAVISVP2,2013-02-25 09:39:00,
2013-02-25 04:44:00,19.0,17.8,30.10,West,259,0.0,0.0,95,0.00,,,0.00,WUHU216DAVISVP2,2013-02-25 09:44:00,
2013-02-25 04:49:00,18.9,17.7,30.10,West,260,0.0,0.0,95,0.00,,,0.00,WUHU216DAVISVP2,2013-02-25 09:49:00,
2013-02-25 04:54:00,19.1,18.1,30.10,West,260,0.0,0.0,96,0.00,,,0.00,WUHU216DAVISVP2,2013-02-25 09:54:00,
2013-02-25 04:59:00,19.2,18.2,30.10,West,260,0.0,0.0,96,0.00,,,0.00,WUHU216DAVISVP2,2013-02-25 09:59:00,
2013-02-25 05:00:00,19.1,18.1,30.10,North,0,0.0,0.0,96,0.00,,,0.00,WUHU216DAVISVP2,2013-02-25 10:00:00,
2013-02-25 05:04:00,18.9,17.7,30.10,West,260,0.0,0.0,95,0.00,,,0.00,WUHU216DAVISVP2,2013-02-25 10:04:00,
2013-02-25 05:09:00,18.3,17.1,30.11,West,260,0.0,0.0,95,0.00,,,0.00,WUHU216DAVISVP2,2013-02-25 10:09:00,
2013-02-25 05:14:00,18.1,16.9,30.10,West,260,0.0,0.0,95,0.00,,,0.00,WUHU216DAVISVP2,2013-02-25 10:14:00,
2013-02-25 05:19:00,18.0,16.8,30.11,West,260,0.0,0.0,95,0.00,,,0.00,WUHU216DAVISVP2,2013-02-25 10:19:00,
2013-02-25 05:24:00,18.0,16.8,30.11,West,260,0.0,0.0,95,0.00,,,0.00,WUHU216DAVISVP2,2013-02-25 10:24:00,
2013-02-25 05:29:00,17.9,16.7,30.11,West,260,0.0,0.0,95,0.00,,,0.00,WUHU216DAVISVP2,2013-02-25 10:29:00,
2013-02-25 05:30:00,17.8,16.6,30.11,North,0,0.0,0.0,95,0.00,,,0.00,WUHU216DAVISVP2,2013-02-25 10:30:00,
2013-02-25 05:34:00,17.8,16.6,30.11,West,259,0.0,0.0,95,0.00,,,0.00,WUHU216DAVISVP2,2013-02-25 10:34:00,
2013-02-25 05:39:00,18.1,17.2,30.11,West,260,0.0,0.0,96,0.00,,,0.00,WUHU216DAVISVP2,2013-02-25 10:39:00,
2013-02-25 05:44:00,18.1,16.9,30.11,West,259,0.0,0.0,95,0.00,,,0.00,WUHU216DAVISVP2,2013-02-25 10:44:00,
2013-02-25 05:50:00,18.1,16.9,30.11,West,260,0.0,0.0,95,0.00,,,0.00,WUHU216DAVISVP2,2013-02-25 10:50:00,
2013-02-25 05:55:00,17.9,16.7,30.11,West,259,0.0,0.0,95,0.00,,,0.00,WUHU216DAVISVP2,2013-02-25 10:55:00,
2013-02-25 06:00:00,17.5,16.3,30.12,West,260,0.0,0.0,95,0.00,,,0.00,WUHU216DAVISVP2,2013-02-25 11:00:00,
2013-02-25 06:05:00,16.8,15.3,30.12,West,260,0.0,0.0,94,0.00,,,0.00,WUHU216DAVISVP2,2013-02-25 11:05:00,
2013-02-25 06:10:00,16.3,14.8,30.12,West,259,0.0,0.0,94,0.00,,,0.00,WUHU216DAVISVP2,2013-02-25 11:10:00,
2013-02-25 06:15:00,15.8,14.1,30.12,West,259,0.0,0.0,93,0.00,,,0.00,WUHU216DAVISVP2,2013-02-25 11:15:00,
2013-02-25 06:20:00,15.3,13.6,30.12,West,260,0.0,0.0,93,0.00,,,0.00,WUHU216DAVISVP2,2013-02-25 11:20:00,
2013-02-25 06:25:00,15.1,13.4,30.13,West,260,0.0,0.0,93,0.00,,,0.00,WUHU216DAVISVP2,2013-02-25 11:25:00,
2013-02-25 06:30:00,15.1,13.6,30.12,West,260,0.0,0.0,94,0.00,,,0.00,WUHU216DAVISVP2,2013-02-25 11:30:00,
2013-02-25 06:35:00,14.8,13.3,30.12,West,259,0.0,0.0,94,0.00,,,0.00,WUHU216DAVISVP2,2013-02-25 11:35:00,
2013-02-25 06:40:00,14.5,13.0,30.12,West,260,0.0,0.0,94,0.00,,,0.00,WUHU216DAVISVP2,2013-02-25 11:40:00,
2013-02-25 06:45:00,14.0,12.3,30.13,West,260,0.0,0.0,93,0.00,,,0.00,WUHU216DAVISVP2,2013-02-25 11:45:00,
2013-02-25 06:51:00,14.3,12.8,30.13,West,259,0.0,0.0,94,0.00,,,0.00,WUHU216DAVISVP2,2013-02-25 11:51:00,
2013-02-25 06:56:00,14.8,13.6,30.13,West,259,0.0,0.0,95,0.00,,,0.00,WUHU216DAVISVP2,2013-02-25 11:56:00,
2013-02-25 07:00:00,14.9,13.7,30.13,North,0,0.0,0.0,95,0.00,,,0.00,WUHU216DAVISVP2,2013-02-25 12:00:00,
2013-02-25 07:01:00,14.9,13.7,30.13,West,259,0.0,0.0,95,0.00,,,0.00,WUHU216DAVISVP2,2013-02-25 12:01:00,
2013-02-25 07:06:00,14.8,13.3,30.13,West,260,0.0,0.0,94,0.00,,,0.00,WUHU216DAVISVP2,2013-02-25 12:06:00,
2013-02-25 07:11:00,14.5,13.0,30.13,West,260,0.0,0.0,94,0.00,,,0.00,WUHU216DAVISVP2,2013-02-25 12:11:00,
2013-02-25 07:16:00,14.4,12.9,30.13,West,260,0.0,0.0,94,0.00,,,0.00,WUHU216DAVISVP2,2013-02-25 12:16:00,
2013-02-25 07:21:00,14.3,12.8,30.13,West,260,0.0,0.0,94,0.00,,,0.00,WUHU216DAVISVP2,2013-02-25 12:21:00,
2013-02-25 07:26:00,14.2,12.7,30.14,West,260,0.0,0.0,94,0.00,,,0.00,WUHU216DAVISVP2,2013-02-25 12:26:00,
2013-02-25 07:30:00,14.1,12.7,30.14,North,0,0.0,0.0,94,0.00,,,0.00,WUHU216DAVISVP2,2013-02-25 12:30:00,
2013-02-25 07:31:00,14.1,12.6,30.14,West,260,0.0,0.0,94,0.00,,,0.00,WUHU216DAVISVP2,2013-02-25 12:31:00,
2013-02-25 07:36:00,14.1,12.4,30.14,West,259,0.0,0.0,93,0.00,,,0.00,WUHU216DAVISVP2,2013-02-25 12:36:00,
2013-02-25 07:41:00,14.0,12.3,30.14,West,260,0.0,0.0,93,0.00,,,0.00,WUHU216DAVISVP2,2013-02-25 12:41:00,
2013-02-25 07:46:00,14.1,12.6,30.14,West,260,0.0,0.0,94,0.00,,,0.00,WUHU216DAVISVP2,2013-02-25 12:46:00,
2013-02-25 07:51:00,14.4,12.9,30.15,West,259,0.0,0.0,94,0.00,,,0.00,WUHU216DAVISVP2,2013-02-25 12:51:00,
2013-02-25 07:57:00,14.6,13.1,30.14,West,259,0.0,0.0,94,0.00,,,0.00,WUHU216DAVISVP2,2013-02-25 12:57:00,
2013-02-25 08:00:00,14.8,13.4,30.14,North,0,0.0,0.0,94,0.00,,,0.00,WUHU216DAVISVP2,2013-02-25 13:00:00,
2013-02-25 08:02:00,14.8,13.3,30.15,West,260,0.0,0.0,94,0.00,,,0.00,WUHU216DAVISVP2,2013-02-25 13:02:00,
2013-02-25 08:07:00,14.8,13.3,30.15,West,260,0.0,0.0,94,0.00,,,0.00,WUHU216DAVISVP2,2013-02-25 13:07:00,
2013-02-25 08:12:00,14.9,13.4,30.16,West,259,0.0,0.0,94,0.00,,,0.00,WUHU216DAVISVP2,2013-02-25 13:12:00,
2013-02-25 08:17:00,15.3,13.8,30.15,West,260,0.0,0.0,94,0.00,,,0.00,WUHU216DAVISVP2,2013-02-25 13:17:00,
2013-02-25 08:22:00,15.3,13.8,30.16,West,259,0.0,0.0,94,0.00,,,0.00,WUHU216DAVISVP2,2013-02-25 13:22:00,
2013-02-25 08:27:00,15.3,13.8,30.15,West,260,0.0,0.0,94,0.00,,,0.00,WUHU216DAVISVP2,2013-02-25 13:27:00,
2013-02-25 08:30:00,15.5,14.1,30.15,North,0,0.0,0.0,94,0.00,,,0.00,WUHU216DAVISVP2,2013-02-25 13:30:00,
2013-02-25 08:32:00,15.6,14.1,30.15,West,262,0.0,0.0,94,0.00,,,0.00,WUHU216DAVISVP2,2013-02-25 13:32:00,
2013-02-25 08:37:00,16.0,14.5,30.15,West,272,0.0,0.0,94,0.00,,,0.00,WUHU216DAVISVP2,2013-02-25 13:37:00,
2013-02-25 08:42:00,16.6,15.1,30.15,West,272,0.0,0.0,94,0.00,,,0.00,WUHU216DAVISVP2,2013-02-25 13:42:00,
2013-02-25 08:47:00,17.1,15.9,30.16,West,273,0.0,0.0,95,0.00,,,0.00,WUHU216DAVISVP2,2013-02-25 13:47:00,
2013-02-25 08:52:00,17.5,16.3,30.16,West,273,0.0,0.0,95,0.00,,,0.00,WUHU216DAVISVP2,2013-02-25 13:52:00,
2013-02-25 08:58:00,17.9,16.7,30.16,West,273,0.0,0.0,95,0.00,,,0.00,WUHU216DAVISVP2,2013-02-25 13:58:00,
2013-02-25 09:00:00,18.3,17.1,30.16,North,0,0.0,0.0,95,0.00,,,0.00,WUHU216DAVISVP2,2013-02-25 14:00:00,
2013-02-25 09:03:00,18.5,17.3,30.16,West,273,0.0,0.0,95,0.00,,,0.00,WUHU216DAVISVP2,2013-02-25 14:03:00,
2013-02-25 09:08:00,18.8,17.6,30.16,West,273,0.0,0.0,95,0.00,,,0.00,WUHU216DAVISVP2,2013-02-25 14:08:00,
2013-02-25 09:13:00,20.1,19.1,30.15,WNW,295,1.0,3.0,96,0.00,,,0.00,WUHU216DAVISVP2,2013-02-25 14:13:00,
2013-02-25 09:18:00,21.5,20.7,30.15,WNW,284,0.0,3.0,97,0.00,,,0.00,WUHU216DAVISVP2,2013-02-25 14:18:00,
2013-02-25 09:23:00,22.7,21.9,30.15,WNW,290,0.0,3.0,97,0.00,,,0.00,WUHU216DAVISVP2,2013-02-25 14:23:00,
2013-02-25 09:29:00,24.3,23.5,30.14,West,268,1.0,3.0,97,0.00,,,0.00,WUHU216DAVISVP2,2013-02-25 14:29:00,
2013-02-25 09:30:00,24.6,23.9,30.14,WNW,293,0.0,3.0,97,0.00,,,0.00,WUHU216DAVISVP2,2013-02-25 14:30:00,
2013-02-25 09:34:00,25.1,24.3,30.14,West,268,0.0,2.0,97,0.00,,,0.00,WUHU216DAVISVP2,2013-02-25 14:34:00,
2013-02-25 09:39:00,25.9,24.9,30.14,West,268,0.0,2.0,96,0.00,,,0.00,WUHU216DAVISVP2,2013-02-25 14:39:00,
2013-02-25 09:44:00,26.3,25.3,30.13,WSW,249,0.0,2.0,96,0.00,,,0.00,WUHU216DAVISVP2,2013-02-25 14:44:00,
2013-02-25 09:49:00,26.8,25.8,30.13,WSW,240,0.0,2.0,96,0.00,,,0.00,WUHU216DAVISVP2,2013-02-25 14:49:00,
2013-02-25 09:55:00,27.3,26.3,30.14,WSW,253,0.0,2.0,96,0.00,,,0.00,WUHU216DAVISVP2,2013-02-25 14:55:00,
2013-02-25 10:00:00,27.6,26.6,30.14,WSW,254,0.0,2.0,96,0.00,,,0.00,WUHU216DAVISVP2,2013-02-25 15:00:00,
2013-02-25 10:05:00,28.2,27.2,30.14,NW,317,0.0,3.0,96,0.00,,,0.00,WUHU216DAVISVP2,2013-02-25 15:05:00,
2013-02-25 10:10:00,28.5,27.3,30.14,West,267,0.0,3.0,95,0.00,,,0.00,WUHU216DAVISVP2,2013-02-25 15:10:00,
2013-02-25 10:15:00,28.7,27.4,30.14,NNE,19,0.0,3.0,95,0.00,,,0.00,WUHU216DAVISVP2,2013-02-25 15:15:00,
2013-02-25 10:21:00,28.6,27.0,30.14,NE,46,0.0,3.0,94,0.00,,,0.00,WUHU216DAVISVP2,2013-02-25 15:21:00,
2013-02-25 10:26:00,28.8,27.2,30.14,North,359,2.0,3.0,94,0.00,,,0.00,WUHU216DAVISVP2,2013-02-25 15:26:00,
2013-02-25 10:30:00,28.8,27.0,30.14,NNE,23,1.0,4.0,93,0.00,,,0.00,WUHU216DAVISVP2,2013-02-25 15:30:00,
2013-02-25 10:31:00,28.8,27.0,30.14,NNE,20,2.0,4.0,93,0.00,,,0.00,WUHU216DAVISVP2,2013-02-25 15:31:00,
2013-02-25 10:36:00,29.0,27.0,30.15,NNE,30,5.0,6.0,92,0.00,,,0.00,WUHU216DAVISVP2,2013-02-25 15:36:00,
2013-02-25 10:41:00,28.8,26.5,30.15,North,353,2.0,6.0,91,0.00,,,0.00,WUHU216DAVISVP2,2013-02-25 15:41:00,
2013-02-25 10:46:00,29.2,26.9,30.15,North,360,2.0,6.0,91,0.00,,,0.00,WUHU216DAVISVP2,2013-02-25 15:46:00,
2013-02-25 10:51:00,29.9,27.3,30.15,North,350,1.0,6.0,90,0.00,,,0.00,WUHU216DAVISVP2,2013-02-25 15:51:00,
2013-02-25 10:56:00,30.4,27.2,30.14,NNW,348,1.0,6.0,88,0.00,,,0.00,WUHU216DAVISVP2,2013-02-25 15:56:00,
2013-02-25 11:00:00,30.9,26.9,30.14,NNW,338,2.0,6.0,85,0.00,,,0.00,WUHU216DAVISVP2,2013-02-25 16:00:00,
2013-02-25 11:01:00,30.9,26.6,30.14,WNW,290,2.0,4.0,84,0.00,,,0.00,WUHU216DAVISVP2,2013-02-25 16:01:00,
2013-02-25 11:06:00,31.2,26.3,30.13,WNW,291,1.0,5.0,82,0.00,,,0.00,WUHU216DAVISVP2,2013-02-25 16:06:00,
2013-02-25 11:11:00,31.7,25.6,30.14,West,276,2.0,5.0,78,0.00,,,0.00,WUHU216DAVISVP2,2013-02-25 16:11:00,
2013-02-25 11:16:00,32.1,25.4,30.14,NW,319,0.0,5.0,76,0.00,,,0.00,WUHU216DAVISVP2,2013-02-25 16:16:00,
2013-02-25 11:21:00,33.1,26.4,30.14,NW,313,2.0,5.0,76,0.00,,,0.00,WUHU216DAVISVP2,2013-02-25 16:21:00,
2013-02-25 11:27:00,33.8,26.1,30.14,NE,46,1.0,5.0,73,0.00,,,0.00,WUHU216DAVISVP2,2013-02-25 16:27:00,
2013-02-25 11:30:00,33.5,24.8,30.14,NW,315,2.0,5.0,70,0.00,,,0.00,WUHU216DAVISVP2,2013-02-25 16:30:00,
2013-02-25 11:32:00,33.5,24.8,30.14,North,9,2.0,5.0,70,0.00,,,0.00,WUHU216DAVISVP2,2013-02-25 16:32:00,
2013-02-25 11:37:00,34.0,24.6,30.14,NW,325,2.0,4.0,68,0.00,,,0.00,WUHU216DAVISVP2,2013-02-25 16:37:00,
2013-02-25 11:42:00,35.1,25.3,30.14,NW,316,2.0,4.0,67,0.00,,,0.00,WUHU216DAVISVP2,2013-02-25 16:42:00,
2013-02-25 11:47:00,35.8,26.0,30.14,SW,224,0.0,4.0,67,0.00,,,0.00,WUHU216DAVISVP2,2013-02-25 16:47:00,
2013-02-25 11:52:00,36.6,25.6,30.14,NW,316,0.0,3.0,64,0.00,,,0.00,WUHU216DAVISVP2,2013-02-25 16:52:00,
2013-02-25 11:57:00,37.6,26.1,30.14,NNW,339,3.0,3.0,63,0.00,,,0.00,WUHU216DAVISVP2,2013-02-25 16:57:00,
2013-02-25 12:00:00,37.3,25.5,30.14,NW,315,1.0,4.0,62,0.00,,,0.00,WUHU216DAVISVP2,2013-02-25 17:00:00,
2013-02-25 12:02:00,36.9,24.7,30.14,NE,46,4.0,5.0,61,0.00,,,0.00,WUHU216DAVISVP2,2013-02-25 17:02:00,
2013-02-25 12:07:00,36.3,25.0,30.14,North,356,1.0,5.0,63,0.00,,,0.00,WUHU216DAVISVP2,2013-02-25 17:07:00,
2013-02-25 12:12:00,36.5,24.8,30.14,NW,321,2.0,5.0,62,0.00,,,0.00,WUHU216DAVISVP2,2013-02-25 17:12:00,
2013-02-25 12:17:00,36.2,24.9,30.14,NNW,333,1.0,4.0,63,0.00,,,0.00,WUHU216DAVISVP2,2013-02-25 17:17:00,
2013-02-25 12:22:00,36.1,24.7,30.14,NNE,22,2.0,4.0,63,0.00,,,0.00,WUHU216DAVISVP2,2013-02-25 17:22:00,
2013-02-25 12:27:00,36.3,24.6,30.14,NNW,338,1.0,4.0,62,0.00,,,0.00,WUHU216DAVISVP2,2013-02-25 17:27:00,
2013-02-25 12:30:00,36.2,24.4,30.14,NNW,338,2.0,5.0,62,0.00,,,0.00,WUHU216DAVISVP2,2013-02-25 17:30:00,
2013-02-25 12:33:00,36.2,24.9,30.13,NNE,23,1.0,4.0,63,0.00,,,0.00,WUHU216DAVISVP2,2013-02-25 17:33:00,
2013-02-25 12:38:00,36.8,25.8,30.13,NNW,335,2.0,4.0,64,0.00,,,0.00,WUHU216DAVISVP2,2013-02-25 17:38:00,
2013-02-25 12:43:00,38.0,25.4,30.13,NE,37,2.0,4.0,60,0.00,,,0.00,WUHU216DAVISVP2,2013-02-25 17:43:00,
2013-02-25 12:48:00,38.0,26.1,30.12,NE,42,0.0,3.0,62,0.00,,,0.00,WUHU216DAVISVP2,2013-02-25 17:48:00,
2013-02-25 12:53:00,39.4,26.2,30.12,SW,218,1.0,3.0,59,0.00,,,0.00,WUHU216DAVISVP2,2013-02-25 17:53:00,
2013-02-25 12:58:00,39.6,26.4,30.12,NNW,328,3.0,3.0,59,0.00,,,0.00,WUHU216DAVISVP2,2013-02-25 17:58:00,
2013-02-25 13:00:00,39.5,25.9,30.11,NNE,23,1.0,3.0,58,0.00,,,0.00,WUHU216DAVISVP2,2013-02-25 18:00:00,
2013-02-25 13:03:00,39.3,26.2,30.11,ESE,103,0.0,3.0,59,0.00,,,0.00,WUHU216DAVISVP2,2013-02-25 18:03:00,
2013-02-25 13:09:00,38.7,25.6,30.11,NW,316,2.0,8.0,59,0.00,,,0.00,WUHU216DAVISVP2,2013-02-25 18:09:00,
2013-02-25 13:14:00,38.6,26.0,30.11,West,274,1.0,8.0,60,0.00,,,0.00,WUHU216DAVISVP2,2013-02-25 18:14:00,
2013-02-25 13:19:00,38.6,25.6,30.11,NNE,21,3.0,7.0,59,0.00,,,0.00,WUHU216DAVISVP2,2013-02-25 18:19:00,
2013-02-25 13:24:00,37.9,25.7,30.11,NE,41,5.0,6.0,61,0.00,,,0.00,WUHU216DAVISVP2,2013-02-25 18:24:00,
2013-02-25 13:29:00,37.5,25.7,30.11,NW,325,0.0,6.0,62,0.00,,,0.00,WUHU216DAVISVP2,2013-02-25 18:29:00,
2013-02-25 13:30:00,37.4,25.2,30.11,NW,315,2.0,8.0,61,0.00,,,0.00,WUHU216DAVISVP2,2013-02-25 18:30:00,
2013-02-25 13:34:00,37.2,25.4,30.11,NNW,327,0.0,6.0,62,0.00,,,0.00,WUHU216DAVISVP2,2013-02-25 18:34:00,
2013-02-25 13:39:00,37.3,25.5,30.10,North,1,4.0,6.0,62,0.00,,,0.00,WUHU216DAVISVP2,2013-02-25 18:39:00,
2013-02-25 13:44:00,36.8,25.5,30.10,NNE,29,2.0,7.0,63,0.00,,,0.00,WUHU216DAVISVP2,2013-02-25 18:44:00,
2013-02-25 13:49:00,37.2,25.4,30.10,NW,323,0.0,7.0,62,0.00,,,0.00,WUHU216DAVISVP2,2013-02-25 18:49:00,
2013-02-25 13:54:00,38.1,25.9,30.10,SE,130,0.0,6.0,61,0.00,,,0.00,WUHU216DAVISVP2,2013-02-25 18:54:00,
2013-02-25 13:59:00,38.8,25.7,30.10,WNW,300,1.0,6.0,59,0.00,,,0.00,WUHU216DAVISVP2,2013-02-25 18:59:00,
2013-02-25 14:00:00,38.8,25.7,30.10,NNE,23,2.0,7.0,59,0.00,,,0.00,WUHU216DAVISVP2,2013-02-25 19:00:00,
2013-02-25 14:05:00,38.5,25.0,30.09,NW,323,1.0,6.0,58,0.00,,,0.00,WUHU216DAVISVP2,2013-02-25 19:05:00,
2013-02-25 14:10:00,39.1,26.8,30.09,ESE,102,0.0,5.0,61,0.00,,,0.00,WUHU216DAVISVP2,2013-02-25 19:10:00,
2013-02-25 14:15:00,39.9,26.7,30.09,West,280,0.0,5.0,59,0.00,,,0.00,WUHU216DAVISVP2,2013-02-25 19:15:00,
2013-02-25 14:20:00,39.4,25.4,30.09,WSW,245,1.0,5.0,57,0.00,,,0.00,WUHU216DAVISVP2,2013-02-25 19:20:00,
2013-02-25 14:25:00,39.1,25.6,30.10,East,98,1.0,5.0,58,0.00,,,0.00,WUHU216DAVISVP2,2013-02-25 19:25:00,
2013-02-25 14:30:00,39.6,25.6,30.10,NE,41,5.0,6.0,57,0.00,,,0.00,WUHU216DAVISVP2,2013-02-25 19:30:00,
2013-02-25 14:35:00,38.7,25.2,30.10,SSE,156,0.0,6.0,58,0.00,,,0.00,WUHU216DAVISVP2,2013-02-25 19:35:00,
2013-02-25 14:40:00,39.5,26.0,30.10,NNW,330,1.0,6.0,58,0.00,,,0.00,WUHU216DAVISVP2,2013-02-25 19:40:00,
2013-02-25 14:45:00,40.4,26.8,30.09,NNW,335,0.0,5.0,58,0.00,,,0.00,WUHU216DAVISVP2,2013-02-25 19:45:00,
2013-02-25 14:50:00,40.6,25.7,30.09,North,8,2.0,5.0,55,0.00,,,0.00,WUHU216DAVISVP2,2013-02-25 19:50:00,
2013-02-25 14:55:00,40.3,25.9,30.09,NNW,343,0.0,4.0,56,0.00,,,0.00,WUHU216DAVISVP2,2013-02-25 19:55:00,
2013-02-25 15:00:00,41.2,26.3,30.09,NW,326,2.0,4.0,55,0.00,,,0.00,WUHU216DAVISVP2,2013-02-25 20:00:00,
2013-02-25 15:06:00,40.6,25.7,30.09,North,356,2.0,4.0,55,0.00,,,0.00,WUHU216DAVISVP2,2013-02-25 20:06:00,
2013-02-25 15:11:00,40.0,25.6,30.09,NNW,330,2.0,4.0,56,0.00,,,0.00,WUHU216DAVISVP2,2013-02-25 20:11:00,
2013-02-25 15:16:00,39.7,25.7,30.09,NW,321,3.0,4.0,57,0.00,,,0.00,WUHU216DAVISVP2,2013-02-25 20:16:00,
2013-02-25 15:21:00,39.7,25.3,30.09,ENE,65,1.0,4.0,56,0.00,,,0.00,WUHU216DAVISVP2,2013-02-25 20:21:00,
2013-02-25 15:26:00,39.3,25.4,30.09,East,95,2.0,4.0,57,0.00,,,0.00,WUHU216DAVISVP2,2013-02-25 20:26:00,
2013-02-25 15:30:00,39.5,25.9,30.09,NNW,338,2.0,4.0,58,0.00,,,0.00,WUHU216DAVISVP2,2013-02-25 20:30:00,
2013-02-25 15:31:00,39.5,26.0,30.09,SE,130,0.0,4.0,58,0.00,,,0.00,WUHU216DAVISVP2,2013-02-25 20:31:00,
2013-02-25 15:36:00,39.9,25.5,30.08,West,275,1.0,4.0,56,0.00,,,0.00,WUHU216DAVISVP2,2013-02-25 20:36:00,
2013-02-25 15:41:00,39.3,24.9,30.09,SSW,211,2.0,5.0,56,0.00,,,0.00,WUHU216DAVISVP2,2013-02-25 20:41:00,
2013-02-25 15:46:00,39.5,25.5,30.09,SW,231,0.0,5.0,57,0.00,,,0.00,WUHU216DAVISVP2,2013-02-25 20:46:00,
2013-02-25 15:51:00,39.5,25.1,30.09,SW,236,2.0,5.0,56,0.00,,,0.00,WUHU216DAVISVP2,2013-02-25 20:51:00,
2013-02-25 15:56:00,39.3,24.9,30.08,WSW,244,3.0,5.0,56,0.00,,,0.00,WUHU216DAVISVP2,2013-02-25 20:56:00,
2013-02-25 16:00:00,39.0,25.0,30.08,WSW,248,2.0,5.0,57,0.00,,,0.00,WUHU216DAVISVP2,2013-02-25 21:00:00,
2013-02-25 16:01:00,39.1,25.1,30.08,WSW,245,1.0,4.0,57,0.00,,,0.00,WUHU216DAVISVP2,2013-02-25 21:01:00,
2013-02-25 16:06:00,39.1,25.1,30.07,WSW,245,3.0,4.0,57,0.00,,,0.00,WUHU216DAVISVP2,2013-02-25 21:06:00,
2013-02-25 16:12:00,38.9,24.9,30.07,West,277,2.0,4.0,57,0.00,,,0.00,WUHU216DAVISVP2,2013-02-25 21:12:00,
2013-02-25 16:17:00,38.9,24.9,30.07,WSW,257,2.0,4.0,57,0.00,,,0.00,WUHU216DAVISVP2,2013-02-25 21:17:00,
2013-02-25 16:22:00,38.8,25.3,30.06,West,275,2.0,4.0,58,0.00,,,0.00,WUHU216DAVISVP2,2013-02-25 21:22:00,
2013-02-25 16:27:00,38.7,25.2,30.06,SW,224,3.0,5.0,58,0.00,,,0.00,WUHU216DAVISVP2,2013-02-25 21:27:00,
2013-02-25 16:30:00,38.6,25.1,30.06,WSW,248,2.0,5.0,58,0.00,,,0.00,WUHU216DAVISVP2,2013-02-25 21:30:00,
2013-02-25 16:32:00,38.6,25.1,30.06,SW,229,0.0,5.0,58,0.00,,,0.00,WUHU216DAVISVP2,2013-02-25 21:32:00,
2013-02-25 16:37:00,38.8,25.3,30.06,SW,235,0.0,4.0,58,0.00,,,0.00,WUHU216DAVISVP2,2013-02-25 21:37:00,
2013-02-25 16:42:00,39.2,25.2,30.06,SW,236,0.0,4.0,57,0.00,,,0.00,WUHU216DAVISVP2,2013-02-25 21:42:00,
2013-02-25 16:47:00,39.2,25.2,30.06,WNW,288,1.0,3.0,57,0.00,,,0.00,WUHU216DAVISVP2,2013-02-25 21:47:00,
2013-02-25 16:52:00,39.4,25.5,30.06,WSW,240,4.0,4.0,57,0.00,,,0.00,WUHU216DAVISVP2,2013-02-25 21:52:00,
2013-02-25 16:57:00,38.9,25.0,30.06,WSW,250,1.0,4.0,57,0.00,,,0.00,WUHU216DAVISVP2,2013-02-25 21:57:00,
2013-02-25 17:00:00,38.6,25.1,30.06,West,270,1.0,7.0,58,0.00,,,0.00,WUHU216DAVISVP2,2013-02-25 22:00:00,
2013-02-25 17:02:00,38.4,24.9,30.06,SSW,211,4.0,7.0,58,0.00,,,0.00,WUHU216DAVISVP2,2013-02-25 22:02:00,
2013-02-25 17:07:00,38.1,25.1,30.06,SSW,211,4.0,7.0,59,0.00,,,0.00,WUHU216DAVISVP2,2013-02-25 22:07:00,
2013-02-25 17:12:00,38.1,25.1,30.06,SSW,194,4.0,7.0,59,0.00,,,0.00,WUHU216DAVISVP2,2013-02-25 22:12:00,
2013-02-25 17:18:00,37.8,24.8,30.06,SSW,211,2.0,7.0,59,0.00,,,0.00,WUHU216DAVISVP2,2013-02-25 22:18:00,
2013-02-25 17:23:00,37.5,24.5,30.06,WSW,238,3.0,7.0,59,0.00,,,0.00,WUHU216DAVISVP2,2013-02-25 22:23:00,
2013-02-25 17:28:00,37.4,25.2,30.06,SW,226,4.0,7.0,61,0.00,,,0.00,WUHU216DAVISVP2,2013-02-25 22:28:00,
2013-02-25 17:30:00,37.2,24.6,30.07,SW,225,3.0,7.0,60,0.00,,,0.00,WUHU216DAVISVP2,2013-02-25 22:30:00,
2013-02-25 17:33:00,37.1,24.9,30.06,SW,228,4.0,6.0,61,0.00,,,0.00,WUHU216DAVISVP2,2013-02-25 22:33:00,
2013-02-25 17:38:00,36.9,24.7,30.06,SW,234,2.0,6.0,61,0.00,,,0.00,WUHU216DAVISVP2,2013-02-25 22:38:00,
2013-02-25 17:43:00,36.7,24.5,30.07,West,262,3.0,7.0,61,0.00,,,0.00,WUHU216DAVISVP2,2013-02-25 22:43:00,
2013-02-25 17:48:00,36.5,24.4,30.06,West,272,2.0,7.0,61,0.00,,,0.00,WUHU216DAVISVP2,2013-02-25 22:48:00,
2013-02-25 17:53:00,36.3,24.6,30.06,SW,225,2.0,6.0,62,0.00,,,0.00,WUHU216DAVISVP2,2013-02-25 22:53:00,
2013-02-25 17:58:00,36.1,24.4,30.06,SW,229,2.0,6.0,62,0.00,,,0.00,WUHU216DAVISVP2,2013-02-25 22:58:00,
2013-02-25 18:00:00,36.0,24.2,30.06,WSW,248,3.0,7.0,62,0.00,,,0.00,WUHU216DAVISVP2,2013-02-25 23:00:00,
2013-02-25 18:03:00,35.9,24.6,30.06,SW,225,0.0,6.0,63,0.00,,,0.00,WUHU216DAVISVP2,2013-02-25 23:03:00,
2013-02-25 18:08:00,35.7,24.4,30.07,SW,225,0.0,6.0,63,0.00,,,0.00,WUHU216DAVISVP2,2013-02-25 23:08:00,
2013-02-25 18:14:00,35.3,24.4,30.07,West,260,1.0,5.0,64,0.00,,,0.00,WUHU216DAVISVP2,2013-02-25 23:14:00,
2013-02-25 18:19:00,34.9,24.4,30.07,SW,235,1.0,4.0,65,0.00,,,0.00,WUHU216DAVISVP2,2013-02-25 23:19:00,
2013-02-25 18:24:00,34.4,24.3,30.07,SW,236,0.0,4.0,66,0.00,,,0.00,WUHU216DAVISVP2,2013-02-25 23:24:00,
2013-02-25 18:29:00,34.0,23.9,30.07,WSW,238,0.0,2.0,66,0.00,,,0.00,WUHU216DAVISVP2,2013-02-25 23:29:00,
2013-02-25 18:30:00,33.8,24.0,30.07,SW,225,1.0,5.0,67,0.00,,,0.00,WUHU216DAVISVP2,2013-02-25 23:30:00,
2013-02-25 18:34:00,33.6,23.9,30.07,WSW,238,0.0,2.0,67,0.00,,,0.00,WUHU216DAVISVP2,2013-02-25 23:34:00,
2013-02-25 18:39:00,33.2,23.8,30.07,SW,236,2.0,3.0,68,0.00,,,0.00,WUHU216DAVISVP2,2013-02-25 23:39:00,
2013-02-25 18:44:00,33.1,23.8,30.07,WSW,240,1.0,3.0,68,0.00,,,0.00,WUHU216DAVISVP2,2013-02-25 23:44:00,
2013-02-25 18:49:00,32.8,23.8,30.07,SW,229,0.0,3.0,69,0.00,,,0.00,WUHU216DAVISVP2,2013-02-25 23:49:00,
2013-02-25 18:54:00,32.3,23.7,30.08,SW,231,0.0,3.0,70,0.00,,,0.00,WUHU216DAVISVP2,2013-02-25 23:54:00,
2013-02-25 18:59:00,32.1,23.8,30.08,SW,231,0.0,3.0,71,0.00,,,0.00,WUHU216DAVISVP2,2013-02-25 23:59:00,
2013-02-25 19:00:00,32.1,23.8,30.08,WSW,248,0.0,3.0,71,0.00,,,0.00,WUHU216DAVISVP2,2013-02-26 00:00:00,
2013-02-25 19:04:00,32.0,23.3,30.08,SW,231,0.0,1.0,70,0.00,,,0.00,WUHU216DAVISVP2,2013-02-26 00:04:00,
2013-02-25 19:09:00,31.8,23.5,30.08,SW,231,0.0,0.0,71,0.00,,,0.00,WUHU216DAVISVP2,2013-02-26 00:09:00,
2013-02-25 19:14:00,31.5,23.5,30.07,SW,231,0.0,0.0,72,0.00,,,0.00,WUHU216DAVISVP2,2013-02-26 00:14:00,
2013-02-25 19:20:00,31.2,23.3,30.08,WSW,249,0.0,1.0,72,0.00,,,0.00,WUHU216DAVISVP2,2013-02-26 00:20:00,
2013-02-25 19:25:00,30.9,23.3,30.07,WSW,245,0.0,1.0,73,0.00,,,0.00,WUHU216DAVISVP2,2013-02-26 00:25:00,
2013-02-25 19:30:00,30.8,23.2,30.07,WSW,242,1.0,2.0,73,0.00,,,0.00,WUHU216DAVISVP2,2013-02-26 00:30:00,
2013-02-25 19:35:00,30.6,23.3,30.07,WSW,249,1.0,2.0,74,0.00,,,0.00,WUHU216DAVISVP2,2013-02-26 00:35:00,
2013-02-25 19:40:00,30.4,23.1,30.07,WSW,240,1.0,2.0,74,0.00,,,0.00,WUHU216DAVISVP2,2013-02-26 00:40:00,
2013-02-25 19:45:00,30.2,23.3,30.07,West,270,0.0,2.0,75,0.00,,,0.00,WUHU216DAVISVP2,2013-02-26 00:45:00,
2013-02-25 19:50:00,30.1,23.2,30.08,West,270,0.0,2.0,75,0.00,,,0.00,WUHU216DAVISVP2,2013-02-26 00:50:00,
2013-02-25 19:55:00,29.8,22.8,30.08,West,270,0.0,2.0,75,0.00,,,0.00,WUHU216DAVISVP2,2013-02-26 00:55:00,
2013-02-25 20:00:00,29.5,22.6,30.07,West,270,0.0,2.0,75,0.00,,,0.00,WUHU216DAVISVP2,2013-02-26 01:00:00,
2013-02-25 20:05:00,29.3,22.7,30.07,WSW,250,0.0,1.0,76,0.00,,,0.00,WUHU216DAVISVP2,2013-02-26 01:05:00,
2013-02-25 20:10:00,29.1,22.8,30.07,SW,228,0.0,1.0,77,0.00,,,0.00,WUHU216DAVISVP2,2013-02-26 01:10:00,
2013-02-25 20:16:00,29.1,22.8,30.08,WSW,244,1.0,1.0,77,0.00,,,0.00,WUHU216DAVISVP2,2013-02-26 01:16:00,
2013-02-25 20:21:00,29.1,22.5,30.07,West,276,1.0,2.0,76,0.00,,,0.00,WUHU216DAVISVP2,2013-02-26 01:21:00,
2013-02-25 20:26:00,29.1,22.5,30.07,West,272,0.0,2.0,76,0.00,,,0.00,WUHU216DAVISVP2,2013-02-26 01:26:00,
2013-02-25 20:30:00,28.9,22.3,30.07,West,270,0.0,2.0,76,0.00,,,0.00,WUHU216DAVISVP2,2013-02-26 01:30:00,
2013-02-25 20:31:00,28.9,22.3,30.07,West,272,0.0,2.0,76,0.00,,,0.00,WUHU216DAVISVP2,2013-02-26 01:31:00,
2013-02-25 20:36:00,28.9,22.3,30.07,WSW,246,2.0,2.0,76,0.00,,,0.00,WUHU216DAVISVP2,2013-02-26 01:36:00,
2013-02-25 20:41:00,28.8,22.5,30.07,SW,232,1.0,2.0,77,0.00,,,0.00,WUHU216DAVISVP2,2013-02-26 01:41:00,
2013-02-25 20:46:00,28.6,22.0,30.07,West,266,1.0,2.0,76,0.00,,,0.00,WUHU216DAVISVP2,2013-02-26 01:46:00,
2013-02-25 20:51:00,28.5,21.9,30.06,WSW,246,1.0,2.0,76,0.00,,,0.00,WUHU216DAVISVP2,2013-02-26 01:51:00,
2013-02-25 20:56:00,28.3,21.7,30.06,West,276,0.0,2.0,76,0.00,,,0.00,WUHU216DAVISVP2,2013-02-26 01:56:00,
2013-02-25 21:00:00,28.5,22.2,30.06,West,270,1.0,2.0,77,0.00,,,0.00,WUHU216DAVISVP2,2013-02-26 02:00:00,
2013-02-25 21:01:00,28.5,22.2,30.06,WSW,243,1.0,2.0,77,0.00,,,0.00,WUHU216DAVISVP2,2013-02-26 02:01:00,
2013-02-25 21:06:00,28.6,22.0,30.06,West,273,0.0,3.0,76,0.00,,,0.00,WUHU216DAVISVP2,2013-02-26 02:06:00,
2013-02-25 21:12:00,28.6,22.0,30.06,West,280,2.0,3.0,76,0.00,,,0.00,WUHU216DAVISVP2,2013-02-26 02:12:00,
2013-02-25 21:17:00,28.5,21.6,30.05,West,272,2.0,4.0,75,0.00,,,0.00,WUHU216DAVISVP2,2013-02-26 02:17:00,
2013-02-25 21:22:00,28.3,21.4,30.05,WSW,256,1.0,4.0,75,0.00,,,0.00,WUHU216DAVISVP2,2013-02-26 02:22:00,
2013-02-25 21:27:00,28.3,21.7,30.04,WNW,292,3.0,4.0,76,0.00,,,0.00,WUHU216DAVISVP2,2013-02-26 02:27:00,
2013-02-25 21:30:00,28.3,21.7,30.04,West,270,2.0,4.0,76,0.00,,,0.00,WUHU216DAVISVP2,2013-02-26 02:30:00,
2013-02-25 21:32:00,28.3,21.7,30.04,WNW,284,2.0,4.0,76,0.00,,,0.00,WUHU216DAVISVP2,2013-02-26 02:32:00,
2013-02-25 21:37:00,28.2,21.6,30.04,West,272,1.0,4.0,76,0.00,,,0.00,WUHU216DAVISVP2,2013-02-26 02:37:00,
2013-02-25 21:42:00,28.2,21.6,30.04,West,274,4.0,4.0,76,0.00,,,0.00,WUHU216DAVISVP2,2013-02-26 02:42:00,
2013-02-25 21:47:00,28.5,21.9,30.05,West,264,4.0,5.0,76,0.00,,,0.00,WUHU216DAVISVP2,2013-02-26 02:47:00,
2013-02-25 21:52:00,28.5,21.9,30.05,West,271,2.0,5.0,76,0.00,,,0.00,WUHU216DAVISVP2,2013-02-26 02:52:00,
2013-02-25 21:57:00,28.5,21.9,30.04,WSW,250,1.0,5.0,76,0.00,,,0.00,WUHU216DAVISVP2,2013-02-26 02:57:00,
2013-02-25 22:00:00,28.4,21.8,30.04,West,270,2.0,5.0,76,0.00,,,0.00,WUHU216DAVISVP2,2013-02-26 03:00:00,
2013-02-25 22:03:00,28.3,21.7,30.04,West,259,2.0,5.0,76,0.00,,,0.00,WUHU216DAVISVP2,2013-02-26 03:03:00,
2013-02-25 22:08:00,28.2,21.6,30.04,WNW,285,2.0,5.0,76,0.00,,,0.00,WUHU216DAVISVP2,2013-02-26 03:08:00,
2013-02-25 22:13:00,28.0,21.4,30.03,WSW,246,2.0,5.0,76,0.00,,,0.00,WUHU216DAVISVP2,2013-02-26 03:13:00,
2013-02-25 22:18:00,27.8,21.6,30.04,WSW,249,1.0,7.0,77,0.00,,,0.00,WUHU216DAVISVP2,2013-02-26 03:18:00,
2013-02-25 22:23:00,27.7,21.5,30.04,WSW,256,2.0,7.0,77,0.00,,,0.00,WUHU216DAVISVP2,2013-02-26 03:23:00,
2013-02-25 22:28:00,27.4,21.2,30.04,West,260,0.0,6.0,77,0.00,,,0.00,WUHU216DAVISVP2,2013-02-26 03:28:00,
2013-02-25 22:30:00,27.4,21.4,30.03,West,270,2.0,7.0,78,0.00,,,0.00,WUHU216DAVISVP2,2013-02-26 03:30:00,
2013-02-25 22:33:00,27.5,21.6,30.04,WNW,295,3.0,6.0,78,0.00,,,0.00,WUHU216DAVISVP2,2013-02-26 03:33:00,
2013-02-25 22:38:00,27.7,21.8,30.04,West,273,3.0,5.0,78,0.00,,,0.00,WUHU216DAVISVP2,2013-02-26 03:38:00,
2013-02-25 22:43:00,27.8,21.6,30.04,WNW,284,2.0,6.0,77,0.00,,,0.00,WUHU216DAVISVP2,2013-02-26 03:43:00,
2013-02-25 22:48:00,27.7,21.4,30.04,WNW,287,3.0,6.0,77,0.00,,,0.00,WUHU216DAVISVP2,2013-02-26 03:48:00,
2013-02-25 22:53:00,27.8,21.5,30.04,WNW,283,3.0,6.0,77,0.00,,,0.00,WUHU216DAVISVP2,2013-02-26 03:53:00,
2013-02-25 22:58:00,27.9,21.6,30.04,West,274,2.0,6.0,77,0.00,,,0.00,WUHU216DAVISVP2,2013-02-26 03:58:00,
2013-02-25 23:00:00,27.9,21.6,30.04,West,270,3.0,6.0,77,0.00,,,0.00,WUHU216DAVISVP2,2013-02-26 04:00:00,
2013-02-25 23:03:00,27.9,21.6,30.04,WSW,250,6.0,6.0,77,0.00,,,0.00,WUHU216DAVISVP2,2013-02-26 04:03:00,
2013-02-25 23:09:00,27.9,21.6,30.04,West,276,3.0,6.0,77,0.00,,,0.00,WUHU216DAVISVP2,2013-02-26 04:09:00,
2013-02-25 23:14:00,27.9,21.6,30.03,West,278,2.0,6.0,77,0.00,,,0.00,WUHU216DAVISVP2,2013-02-26 04:14:00,
2013-02-25 23:19:00,27.8,21.6,30.04,West,264,2.0,6.0,77,0.00,,,0.00,WUHU216DAVISVP2,2013-02-26 04:19:00,
2013-02-25 23:24:00,27.8,21.6,30.04,West,274,4.0,6.0,77,0.00,,,0.00,WUHU216DAVISVP2,2013-02-26 04:24:00,
2013-02-25 23:29:00,27.8,21.6,30.05,WNW,301,2.0,6.0,77,0.00,,,0.00,WUHU216DAVISVP2,2013-02-26 04:29:00,
2013-02-25 23:30:00,27.8,21.5,30.05,West,270,3.0,6.0,77,0.00,,,0.00,WUHU216DAVISVP2,2013-02-26 04:30:00,
2013-02-25 23:34:00,27.8,21.8,30.05,West,270,2.0,6.0,78,0.00,,,0.00,WUHU216DAVISVP2,2013-02-26 04:34:00,
2013-02-25 23:39:00,27.8,21.5,30.06,West,262,2.0,6.0,77,0.00,,,0.00,WUHU216DAVISVP2,2013-02-26 04:39:00,
2013-02-25 23:44:00,27.8,21.8,30.06,West,276,2.0,6.0,78,0.00,,,0.00,WUHU216DAVISVP2,2013-02-26 04:44:00,
2013-02-25 23:49:00,27.7,21.7,30.06,WNW,287,3.0,6.0,78,0.00,,,0.00,WUHU216DAVISVP2,2013-02-26 04:49:00,
2013-02-25 23:54:00,27.7,21.8,30.06,West,262,4.0,5.0,78,0.00,,,0.00,WUHU216DAVISVP2,2013-02-26 04:54:00,
2013-02-25 23:59:00,27.6,21.7,30.06,WNW,291,1.0,5.0,78,0.00,,,0.00,WUHU216DAVISVP2,2013-02-26 04:59:00,